Terminal Aerodrome Forecast
Issued by NWS

Home | Current Version | Previous Version | Text Only | Print | Product List | Glossary On
Versions: 1 2 3 4 5 6 7 8 9 10 11 12 13 14 15 16 17
000
FTUS41 KBGM 280100 AAA
TAFRME
TAF AMD
KRME 280144Z 2802/2824 VRB05KT P6SM SCT040 BKN070
     FM280600 VRB03KT 3SM -SHRA BR OVC025
      TEMPO 2806/2809 5SM TSRA OVC018CB
     FM281300 32015KT 5SM -SHRA BR OVC015
     FM281600 31009KT P6SM -SHRA OVC025=

USA.gov is the U.S. government's official web portal to all federal, state and local government web resources and services.